Naples, FL

7:19 AM EST on March 02, 2015 (GMT -0500)
Page | Change Station
CLOSE
Current Station
Airport
Location: Fort Myers,
Elevation: 16 ft
Nearby Weather Stations

Elev 16 ft 26.58 °N, 81.86 °W | Updated 26 minutes ago

Fog
Fog
66 °F
Feels Like 66 °F
N
5
Wind Variable Wind from East

Today
High -- | Low -- °F
--% Chance of Precip.
Yesterday
High -- | Low -- °F
Precip. -- in
6:49 AM 6:29 PM
Waxing Gibbous, 91% visible
Pressure 30.27 in
Visibility 0.2 miles
Clouds
Dew Point 66 °F
Humidity 100%
Rainfall 0.00 in
Snow Depth Not available.
UV Not available.
Pollen 10.00 out of 12
Air Quality Not available.
Flu Activity Not available.
METAR KFMY 021153Z 08004KT 1/4SM FG VV002 19/19 A3026 RMK AO2 SLP250 70001 T01890189 10200 20178 53009

More Conditions Fewer Conditions

Pressure 30.27 in
Visibility 0.2 miles
Clouds
Dew Point 66 °F
Humidity 100%
Rainfall 0.00 in
Snow Depth Not available.
UV Not available.
Pollen 10.00 out of 12
Air Quality Not available.
Flu Activity Not available.
METAR KFMY 021153Z 08004KT 1/4SM FG VV002 19/19 A3026 RMK AO2 SLP250 70001 T01890189 10200 20178 53009

More Conditions Fewer Conditions

Nowcast | as of 5:29 am EST on March 2, 2015

Patchy fog will continue across the western interior this morning with isolated visibilities below one mile in some areas. Caution is advised while traveling.

×

10-Day Weather Forecast

Almanac

Astronomy

Mar. 02, 2015 Rise Set
Actual Time
Civil Twilight
Nautical Twilight
Astronomical Twilight
Moon
Length of Visible Light
Length of Day
Tomorrow will be .
, % of the Moon is Illuminated

Today's Extremes

State Highs State Lows

Community

WunderPhotos

Upload Photos

1,801,770 photos uploaded!

WunderBlogs® & News

Nearby

Air Quality

  Air Quality AQ Index Pollutant
Not available.

Snow Depth

Station Depth Elevation

Earthquake Activity

City Distance Mag. Time & Date
Minimum magnitude displayed is 2.5.

Coastal Water Temperatures

Place Temperature

Nearby Weather Stations